Time;durP1;ratioP1;P1;durP2;ratioP2;P2;SDS_P1;SDS_P2;PMS_P1;PMS_P2;Temp;Humidity;BMP_temperature;BMP_pressure;BME280_temperature;BME280_humidity;BME280_pressure;Samples;Min_cycle;Max_cycle;Signal;HPM_P1;HPM_P2
2022/04/16 00:00:41;;;;;;;8.40;3.15;;;;;;;12.82;54.80;101125.50;2075862;28;20112;-75
2022/04/16 00:02:05;;;;;;;6.53;3.13;;;;;;;12.82;54.94;101131.69;2088088;28;20074;-75
2022/04/16 00:03:27;;;;;;;5.43;3.13;;;;;;;12.82;55.03;101133.44;2085526;28;20063;-75
2022/04/16 00:04:50;;;;;;;9.70;3.20;;;;;;;12.77;55.17;101130.75;2091449;28;20051;-75
2022/04/16 00:06:13;;;;;;;6.95;3.00;;;;;;;12.72;55.19;101117.44;2102064;28;20044;-75
2022/04/16 00:07:36;;;;;;;10.25;3.67;;;;;;;12.68;55.20;101117.38;2090234;28;20505;-75
2022/04/16 00:09:00;;;;;;;12.15;4.85;;;;;;;12.66;55.22;101120.03;2091611;28;20048;-75
2022/04/16 00:10:23;;;;;;;8.50;3.83;;;;;;;12.66;55.16;101120.03;2087986;28;20076;-75
2022/04/16 00:11:45;;;;;;;7.60;3.78;;;;;;;12.67;55.10;101119.13;2090284;28;20040;-75
2022/04/16 00:13:07;;;;;;;12.13;3.70;;;;;;;12.62;55.15;101115.53;2094112;28;20096;-75
2022/04/16 00:14:29;;;;;;;4.47;2.85;;;;;;;12.53;55.41;101126.03;2096060;28;20122;-75
2022/04/16 00:15:53;;;;;;;5.82;3.47;;;;;;;12.47;55.47;101120.63;2096491;28;20110;-75
2022/04/16 00:17:16;;;;;;;5.10;3.22;;;;;;;12.42;55.59;101122.31;2099666;28;20067;-73
2022/04/16 00:18:39;;;;;;;5.68;2.90;;;;;;;12.41;55.50;101120.53;2088147;28;20057;-75
2022/04/16 00:20:02;;;;;;;5.07;2.42;;;;;;;12.41;55.57;101114.34;2091342;28;20044;-75
2022/04/16 00:21:24;;;;;;;6.28;2.90;;;;;;;12.40;55.61;101112.59;2093035;28;20080;-75
2022/04/16 00:22:46;;;;;;;5.13;2.90;;;;;;;12.39;55.58;101119.66;2085640;28;20045;-75
2022/04/16 00:24:10;;;;;;;6.50;3.70;;;;;;;12.34;55.65;101123.97;2102194;28;20147;-75
2022/04/16 00:25:34;;;;;;;7.53;4.15;;;;;;;12.24;55.90;101122.06;2090907;28;20072;-75
2022/04/16 00:26:56;;;;;;;8.05;3.65;;;;;;;12.23;55.88;101115.00;2102192;28;20361;-75
2022/04/16 00:28:19;;;;;;;6.95;3.13;;;;;;;12.22;55.94;101123.78;2089973;28;20491;-75
2022/04/16 00:29:41;;;;;;;6.82;3.60;;;;;;;12.24;55.92;101114.13;2085714;28;20052;-75
2022/04/16 00:31:02;;;;;;;6.95;3.38;;;;;;;12.25;55.94;101123.84;2085688;28;20037;-74
2022/04/16 00:32:25;;;;;;;8.77;4.45;;;;;;;12.26;55.80;101118.59;2097496;28;20063;-75
2022/04/16 00:33:46;;;;;;;9.10;4.28;;;;;;;12.27;55.97;101111.53;2093807;28;20443;-75
2022/04/16 00:35:10;;;;;;;6.55;3.70;;;;;;;12.26;55.89;101112.41;2079487;28;20434;-75
2022/04/16 00:36:32;;;;;;;6.22;3.80;;;;;;;12.24;55.98;101111.47;2085521;28;20508;-75
2022/04/16 00:37:54;;;;;;;6.82;4.20;;;;;;;12.22;56.04;101114.09;2096664;28;20555;-75
2022/04/16 00:39:18;;;;;;;;;;;;;;;12.17;56.14;101110.50;2096714;28;20041;-75
2022/04/16 00:40:40;;;;;;;11.40;5.10;;;;;;;12.14;56.43;101106.94;2091159;28;19921;-75
2022/04/16 00:42:02;;;;;;;6.78;4.18;;;;;;;12.13;56.55;101103.41;2092454;28;20135;-75
2022/04/16 00:43:25;;;;;;;7.93;4.20;;;;;;;12.11;56.79;101102.47;2077285;28;20489;-75
2022/04/16 00:44:47;;;;;;;;;;;;;;;12.07;56.92;101100.66;2099930;28;20089;-75
2022/04/16 00:46:10;;;;;;;9.18;4.63;;;;;;;12.06;56.96;101092.69;2090932;28;20014;-75
2022/04/16 00:47:32;;;;;;;10.55;5.13;;;;;;;12.05;56.95;101089.16;2093540;28;20040;-75
2022/04/16 00:48:55;;;;;;;7.57;4.43;;;;;;;12.01;57.14;101095.28;2087628;28;20068;-75
2022/04/16 00:50:18;;;;;;;8.95;3.78;;;;;;;11.98;57.37;101089.94;2091305;28;20049;-74
2022/04/16 00:51:41;;;;;;;6.50;3.85;;;;;;;11.92;57.34;101092.50;2098154;28;20131;-75
2022/04/16 00:53:03;;;;;;;6.10;3.28;;;;;;;11.84;57.32;101095.00;2110502;28;20047;-75
2022/04/16 00:54:27;;;;;;;;;;;;;;;11.79;57.48;101101.09;2099817;28;20135;-74
2022/04/16 00:55:48;;;;;;;5.30;4.38;;;;;;;11.78;57.45;101100.19;2102083;28;19977;-74
2022/04/16 00:57:11;;;;;;;6.82;4.72;;;;;;;11.82;57.44;101095.84;2091330;28;20587;-75
2022/04/16 00:58:33;;;;;;;7.22;4.78;;;;;;;11.81;57.49;101102.91;2099334;28;20128;-75
2022/04/16 00:59:56;;;;;;;7.13;4.28;;;;;;;11.81;57.46;101097.63;2102113;28;20056;-75
2022/04/16 01:01:18;;;;;;;5.50;3.13;;;;;;;11.80;57.38;101095.84;2100296;28;20047;-75
2022/04/16 01:02:40;;;;;;;7.20;3.63;;;;;;;11.82;57.30;101094.09;2093060;28;20040;-75
2022/04/16 01:04:04;;;;;;;8.32;4.10;;;;;;;11.82;57.23;101094.09;2093744;28;20072;-75
2022/04/16 01:05:26;;;;;;;8.43;4.13;;;;;;;11.82;57.15;101086.16;2085886;28;20049;-75
2022/04/16 01:06:49;;;;;;;7.95;5.35;;;;;;;11.79;57.02;101090.50;2092141;28;20075;-75
2022/04/16 01:08:12;;;;;;;9.30;5.63;;;;;;;11.75;57.10;101094.84;2093602;28;20052;-74
2022/04/16 01:09:36;;;;;;;6.68;3.78;;;;;;;11.70;57.31;101092.97;2094016;28;20539;-74
2022/04/16 01:10:59;;;;;;;11.70;4.38;;;;;;;11.67;57.24;101091.19;2101597;28;20044;-74
2022/04/16 01:12:21;;;;;;;7.15;4.35;;;;;;;11.67;57.29;101085.91;2101954;28;20048;-75
2022/04/16 01:13:48;;;;;;;8.40;4.00;;;;;;;11.68;57.30;101078.84;2093571;28;20048;-75
2022/04/16 01:15:13;;;;;;;7.13;4.65;;;;;;;11.70;57.29;101077.09;2085454;28;20045;-75
2022/04/16 01:16:35;;;;;;;7.00;3.90;;;;;;;11.68;57.19;101071.81;2100188;28;20083;-74
2022/04/16 01:17:59;;;;;;;7.85;3.85;;;;;;;11.68;57.23;101069.16;2097920;28;20151;-75
2022/04/16 01:19:21;;;;;;;9.25;4.93;;;;;;;11.65;57.26;101071.75;2095655;28;20477;-74
2022/04/16 01:20:44;;;;;;;12.00;5.25;;;;;;;11.61;57.35;101079.63;2098738;28;20043;-75
2022/04/16 01:22:07;;;;;;;9.90;4.95;;;;;;;11.55;57.52;101080.41;2098390;28;20113;-75
2022/04/16 01:23:31;;;;;;;10.32;5.32;;;;;;;11.51;57.64;101083.84;2097553;28;20531;-75
2022/04/16 01:24:54;;;;;;;6.90;4.70;;;;;;;11.47;57.61;101082.03;2103434;28;20040;-75
2022/04/16 01:26:17;;;;;;;7.22;3.90;;;;;;;11.46;57.63;101070.56;2088849;28;20041;-75
2022/04/16 01:27:43;;;;;;;8.20;3.78;;;;;;;11.46;57.74;101065.28;2089596;28;20059;-75
2022/04/16 01:29:06;;;;;;;8.10;4.63;;;;;;;11.47;57.78;101066.16;2087515;28;20159;-75
2022/04/16 01:30:29;;;;;;;7.05;4.47;;;;;;;11.47;57.54;101061.78;2093101;28;20494;-74
2022/04/16 01:31:52;;;;;;;7.53;4.40;;;;;;;11.49;57.49;101064.41;2094670;28;20502;-75
2022/04/16 01:33:17;;;;;;;9.13;4.72;;;;;;;11.47;57.43;101068.81;2083711;28;20093;-75
2022/04/16 01:34:39;;;;;;;6.97;3.95;;;;;;;11.41;57.58;101080.19;2094703;28;20047;-75
2022/04/16 01:36:02;;;;;;;6.05;4.20;;;;;;;11.39;57.70;101073.97;2089640;28;20057;-75
2022/04/16 01:37:24;;;;;;;7.70;4.15;;;;;;;11.38;57.73;101072.19;2083212;28;20128;-75
2022/04/16 01:38:48;;;;;;;8.40;4.40;;;;;;;11.39;57.82;101073.06;2089471;28;20448;-75
2022/04/16 01:40:12;;;;;;;8.40;4.80;;;;;;;11.40;57.76;101064.28;2095160;28;20037;-75
2022/04/16 01:41:35;;;;;;;9.88;4.20;;;;;;;11.41;57.85;101077.53;2089074;28;20096;-75
2022/04/16 01:42:58;;;;;;;6.75;4.10;;;;;;;11.39;57.82;101078.34;2092684;28;20056;-75
2022/04/16 01:44:21;;;;;;;5.43;4.25;;;;;;;11.39;57.69;101073.06;2086438;28;20044;-75
2022/04/16 01:45:44;;;;;;;7.72;5.32;;;;;;;11.40;57.72;101075.75;2089247;28;20037;-75
2022/04/16 01:47:05;;;;;;;8.25;5.03;;;;;;;11.39;57.74;101078.34;2078733;28;20107;-75
2022/04/16 01:48:28;;;;;;;9.00;4.97;;;;;;;11.39;57.51;101078.34;2081899;28;20084;-75
2022/04/16 01:49:51;;;;;;;10.30;4.78;;;;;;;11.41;57.57;101082.81;2094682;28;20044;-75
2022/04/16 01:51:14;;;;;;;8.07;4.47;;;;;;;11.43;57.51;101065.22;2095148;28;20107;-75
2022/04/16 01:52:36;;;;;;;8.40;4.63;;;;;;;11.47;57.43;101066.16;2094421;28;20048;-75
2022/04/16 01:54:00;;;;;;;6.40;3.63;;;;;;;11.50;57.27;101058.28;2095102;28;20047;-75
2022/04/16 01:55:23;;;;;;;7.18;4.53;;;;;;;11.52;57.27;101069.78;2089337;28;20149;-75
2022/04/16 01:56:44;;;;;;;6.95;3.90;;;;;;;11.53;57.26;101072.44;2094786;28;20476;-75
2022/04/16 01:58:06;;;;;;;7.10;3.88;;;;;;;11.55;57.29;101069.84;2086916;28;20048;-74
2022/04/16 01:59:29;;;;;;;7.95;3.97;;;;;;;11.55;57.16;101065.41;2092285;28;20036;-75
2022/04/16 02:00:52;;;;;;;8.57;4.57;;;;;;;11.53;57.28;101058.34;2097174;28;20040;-75
2022/04/16 02:02:13;;;;;;;8.73;4.88;;;;;;;11.52;57.01;101068.00;2088794;28;20148;-74
2022/04/16 02:03:36;;;;;;;8.05;3.80;;;;;;;11.52;57.32;101062.72;2091748;28;20052;-75
2022/04/16 02:04:57;;;;;;;8.50;5.03;;;;;;;11.51;57.37;101060.94;2094197;28;20397;-75
2022/04/16 02:06:20;;;;;;;9.70;5.13;;;;;;;11.51;57.32;101060.06;2086491;28;20106;-75
2022/04/16 02:07:43;;;;;;;8.73;5.28;;;;;;;11.50;57.42;101069.72;2092380;28;20064;-75
2022/04/16 02:09:06;;;;;;;10.13;5.70;;;;;;;11.44;57.33;101061.69;2094732;28;20049;-74
2022/04/16 02:10:28;;;;;;;11.70;5.32;;;;;;;11.37;57.54;101062.47;2094903;28;20537;-75
2022/04/16 02:11:50;;;;;;;10.13;4.75;;;;;;;11.35;57.61;101058.94;2095115;28;20056;-75
2022/04/16 02:13:12;;;;;;;6.85;4.40;;;;;;;11.34;57.71;101059.78;2097778;28;20050;-74
2022/04/16 02:14:33;;;;;;;10.93;4.65;;;;;;;11.35;57.79;101058.94;2101706;28;20048;-74
2022/04/16 02:15:56;;;;;;;8.95;4.60;;;;;;;11.36;58.04;101060.69;2086460;28;20143;-74
2022/04/16 02:17:17;;;;;;;8.48;4.07;;;;;;;11.35;58.00;101061.56;2092112;28;20048;-75
2022/04/16 02:18:40;;;;;;;6.82;4.30;;;;;;;11.35;58.05;101056.28;2084860;28;20043;-75
2022/04/16 02:20:03;;;;;;;7.25;4.45;;;;;;;11.34;58.10;101057.16;2086699;28;20071;-74
2022/04/16 02:21:26;;;;;;;9.23;4.72;;;;;;;11.35;58.11;101058.03;2089969;28;20411;-75
2022/04/16 02:22:49;;;;;;;7.43;4.53;;;;;;;11.33;58.07;101058.00;2095027;28;20500;-75
2022/04/16 02:24:13;;;;;;;8.13;4.80;;;;;;;11.32;58.27;101061.50;2080949;28;20045;-75
2022/04/16 02:25:36;;;;;;;8.07;4.32;;;;;;;11.29;58.14;101044.72;2094731;28;20048;-75
2022/04/16 02:26:58;;;;;;;9.40;4.63;;;;;;;11.27;58.23;101051.72;2089225;28;20052;-75
2022/04/16 02:28:21;;;;;;;10.60;4.80;;;;;;;11.26;58.36;101055.22;2097172;28;20561;-74
2022/04/16 02:29:43;;;;;;;10.18;5.25;;;;;;;11.25;58.41;101058.72;2094808;28;20089;-75
2022/04/16 02:31:05;;;;;;;9.73;5.50;;;;;;;11.25;58.55;101066.66;2093501;28;20060;-75
2022/04/16 02:32:26;;;;;;;8.27;4.82;;;;;;;11.26;58.50;101057.88;2094390;28;22017;-75
2022/04/16 02:33:49;;;;;;;10.50;4.78;;;;;;;11.23;58.55;101065.72;2084713;28;20053;-75
2022/04/16 02:35:13;;;;;;;7.70;5.38;;;;;;;11.23;58.75;101060.44;2080826;28;20062;-75
2022/04/16 02:36:36;;;;;;;8.02;4.65;;;;;;;11.22;58.60;101053.41;2088449;28;20098;-75
2022/04/16 02:37:59;;;;;;;6.63;4.53;;;;;;;11.22;58.84;101054.28;2094988;28;20139;-74
2022/04/16 02:39:23;;;;;;;8.40;4.55;;;;;;;11.21;58.88;101048.97;2103027;28;20052;-75
2022/04/16 02:40:45;;;;;;;8.65;4.68;;;;;;;11.18;58.90;101047.16;2088851;28;20049;-75
2022/04/16 02:42:08;;;;;;;7.68;4.40;;;;;;;11.18;58.88;101048.03;2102547;28;20071;-75
2022/04/16 02:43:30;;;;;;;7.57;4.50;;;;;;;11.19;58.90;101044.53;2087132;28;20048;-74
2022/04/16 02:48:12;;;;;;;11.57;6.60;;;;;;;11.20;58.82;101040.16;2113910;27;20055;-72
2022/04/16 02:49:34;;;;;;;6.97;4.72;;;;;;;11.12;58.84;101037.38;2100253;28;20036;-74
2022/04/16 02:50:56;;;;;;;;;;;;;;;11.07;59.20;101032.88;2103456;28;20056;-74
2022/04/16 02:52:20;;;;;;;7.63;5.15;;;;;;;11.04;59.17;101038.97;2097233;28;19921;-75
2022/04/16 02:53:42;;;;;;;6.95;4.63;;;;;;;11.06;59.25;101031.09;2101597;28;20036;-75
2022/04/16 02:55:09;;;;;;;8.02;5.13;;;;;;;11.08;59.20;101029.38;2097257;28;20139;-74
2022/04/16 02:56:31;;;;;;;9.02;4.70;;;;;;;11.07;59.15;101025.84;2091167;28;20107;-75
2022/04/16 02:57:54;;;;;;;8.20;5.15;;;;;;;11.08;59.38;101026.72;2086539;28;20041;-75
2022/04/16 02:59:15;;;;;;;10.35;5.22;;;;;;;11.06;59.57;101031.97;2092056;28;20512;-75
2022/04/16 03:00:38;;;;;;;9.57;5.30;;;;;;;11.07;59.62;101032.88;2101625;28;20036;-75
2022/04/16 03:01:59;;;;;;;8.55;5.00;;;;;;;11.06;59.43;101026.69;2101851;28;20048;-75
2022/04/16 03:03:22;;;;;;;9.55;5.45;;;;;;;11.06;59.52;101031.09;2101572;28;20044;-75
2022/04/16 03:04:44;;;;;;;8.73;4.80;;;;;;;11.04;59.52;101028.41;2094729;28;20051;-75
2022/04/16 03:06:07;;;;;;;7.57;4.22;;;;;;;10.97;59.85;101033.56;2092617;28;20049;-74
2022/04/16 03:07:28;;;;;;;10.93;4.75;;;;;;;10.96;59.93;101024.72;2110941;28;20054;-75
2022/04/16 03:08:51;;;;;;;8.60;5.68;;;;;;;10.97;60.03;101020.34;2100112;28;20561;-75
2022/04/16 03:10:15;;;;;;;8.73;5.45;;;;;;;10.93;60.09;101014.13;2111071;28;20397;-75
2022/04/16 03:11:38;;;;;;;11.55;5.07;;;;;;;10.94;60.13;101018.56;2098910;28;20045;-74
2022/04/16 03:13:01;;;;;;;9.73;5.15;;;;;;;10.95;60.23;101014.16;2086226;28;20398;-75
2022/04/16 03:17:42;;;;;;;8.63;6.00;;;;;;;10.98;60.10;101019.50;2088716;28;20075;-75
2022/04/16 03:19:05;;;;;;;7.97;5.50;;;;;;;10.95;60.06;101014.16;2092011;28;20513;-75
2022/04/16 03:20:29;;;;;;;9.18;5.95;;;;;;;10.94;59.99;101012.38;2086100;28;20656;-74
2022/04/16 03:21:51;;;;;;;9.95;6.10;;;;;;;10.92;60.17;101017.63;2111166;27;20496;-75
2022/04/16 03:23:14;;;;;;;7.47;4.80;;;;;;;10.92;60.06;101008.81;2116295;27;20099;-75
2022/04/16 03:24:35;;;;;;;8.98;5.13;;;;;;;10.90;60.18;101003.50;2108945;28;20047;-75
2022/04/16 03:26:00;;;;;;;10.45;5.32;;;;;;;10.89;60.24;101007.03;2094452;28;20059;-75
2022/04/16 03:27:22;;;;;;;17.00;6.45;;;;;;;10.88;60.14;101002.59;2100315;28;20413;-75
2022/04/16 03:28:45;;;;;;;7.82;5.85;;;;;;;10.86;60.41;101006.97;2085971;28;20490;-75
2022/04/16 03:30:09;;;;;;;9.13;5.43;;;;;;;10.83;60.43;101006.03;2099619;28;20051;-74
2022/04/16 03:31:31;;;;;;;15.50;5.22;;;;;;;10.80;60.46;101001.56;2097016;28;20128;-74
2022/04/16 03:32:53;;;;;;;9.63;5.38;;;;;;;10.81;60.34;100997.19;2085715;28;20045;-74
2022/04/16 03:34:16;;;;;;;8.57;6.30;;;;;;;10.81;60.35;101003.34;2092569;28;20052;-75
2022/04/16 03:35:38;;;;;;;10.10;5.63;;;;;;;10.80;60.23;101006.84;2111205;28;20543;-75
2022/04/16 03:37:01;;;;;;;9.52;4.80;;;;;;;10.79;60.36;101007.72;2094422;28;20093;-72
2022/04/16 03:38:24;;;;;;;6.93;4.82;;;;;;;10.80;60.22;101006.84;2088722;28;20084;-72
2022/04/16 03:39:45;;;;;;;9.43;5.57;;;;;;;10.78;60.31;101005.91;2082899;28;20610;-72
2022/04/16 03:41:09;;;;;;;9.98;5.18;;;;;;;10.78;60.29;101003.28;2082771;28;20110;-72
2022/04/16 03:42:32;;;;;;;9.65;5.85;;;;;;;10.77;60.35;100998.84;2093662;28;20048;-72
2022/04/16 03:43:55;;;;;;;8.95;5.78;;;;;;;10.75;60.34;101001.50;2098389;28;20052;-72
2022/04/16 03:45:18;;;;;;;9.13;5.68;;;;;;;10.76;60.23;101007.66;2093821;28;20483;-72
2022/04/16 03:46:41;;;;;;;9.50;5.95;;;;;;;10.75;60.46;101003.25;2102208;28;20524;-72
2022/04/16 03:48:06;;;;;;;8.93;5.90;;;;;;;10.75;60.45;101003.25;2094039;28;20117;-74
2022/04/16 03:49:27;;;;;;;12.18;6.28;;;;;;;10.74;60.53;101001.47;2086145;28;20057;-75
2022/04/16 03:50:50;;;;;;;8.88;5.80;;;;;;;10.73;60.49;101000.56;2088715;28;20044;-75
2022/04/16 03:52:13;;;;;;;9.30;5.78;;;;;;;10.69;60.43;100998.75;2101475;28;20048;-75
2022/04/16 03:53:35;;;;;;;8.93;6.10;;;;;;;10.69;60.74;101001.38;2095250;28;20041;-74
2022/04/16 04:00:04;;;;;;;8.77;5.65;;;;;;;10.79;60.70;101013.88;2096248;28;20059;-75
2022/04/16 04:01:34;;;;;;;8.20;5.22;;;;;;;10.84;60.70;101010.41;2089587;28;20060;-75
2022/04/16 04:02:55;;;;;;;8.48;5.82;;;;;;;10.88;60.59;101021.09;2090246;28;20049;-74
2022/04/16 04:04:18;;;;;;;7.85;5.28;;;;;;;10.92;60.86;101015.00;2077383;28;20538;-75
2022/04/16 04:05:40;;;;;;;9.23;5.63;;;;;;;10.95;60.73;101025.63;2077485;28;20063;-75
2022/04/16 04:07:03;;;;;;;9.48;6.38;;;;;;;10.97;60.53;101029.16;2083477;28;20596;-74
2022/04/16 04:08:26;;;;;;;10.05;6.40;;;;;;;11.02;60.61;101026.63;2092239;28;20098;-75
2022/04/16 04:09:48;;;;;;;9.32;5.60;;;;;;;11.05;60.71;101031.94;2089959;28;20714;-75
2022/04/16 04:11:10;;;;;;;9.88;5.88;;;;;;;11.07;60.62;101033.75;2085857;28;20143;-75
2022/04/16 04:12:35;;;;;;;9.90;4.95;;;;;;;11.13;60.92;101032.97;2091247;28;20063;-75
2022/04/16 04:13:57;;;;;;;10.77;5.75;;;;;;;11.21;60.76;101041.94;2093358;28;20052;-75
2022/04/16 04:15:19;;;;;;;12.43;5.68;;;;;;;11.28;60.64;101043.81;2085442;28;20122;-74
2022/04/16 04:16:41;;;;;;;11.93;5.85;;;;;;;11.33;60.76;101042.16;2080042;28;20055;-75
2022/04/16 04:18:04;;;;;;;9.23;5.82;;;;;;;11.37;60.76;101049.25;2099870;28;20143;-74
2022/04/16 04:19:25;;;;;;;12.90;5.47;;;;;;;11.43;61.01;101045.81;2090735;28;20091;-76
2022/04/16 04:20:48;;;;;;;9.20;5.80;;;;;;;11.50;60.82;101045.94;2085639;28;20053;-74
2022/04/16 04:22:11;;;;;;;10.52;5.95;;;;;;;11.57;60.93;101052.22;2094847;28;20044;-74
2022/04/16 04:23:34;;;;;;;10.18;5.80;;;;;;;11.65;60.67;101053.25;2094458;28;20056;-75
2022/04/16 04:24:56;;;;;;;10.73;5.85;;;;;;;11.73;60.68;101059.53;2101020;28;20116;-74
2022/04/16 04:26:19;;;;;;;10.25;5.28;;;;;;;11.83;60.68;101065.88;2109934;28;20524;-75
2022/04/16 04:27:44;;;;;;;8.75;4.38;;;;;;;11.92;60.57;101066.03;2104867;28;20040;-74
2022/04/16 04:29:05;;;;;;;9.23;5.40;;;;;;;11.98;60.38;101060.81;2102294;28;20048;-74
2022/04/16 04:30:29;;;;;;;10.13;5.93;;;;;;;12.10;60.49;101057.47;2093871;28;20476;-75
2022/04/16 04:31:51;;;;;;;9.32;5.47;;;;;;;12.24;60.47;101066.50;2099904;28;20440;-75
2022/04/16 04:33:14;;;;;;;11.25;5.07;;;;;;;12.38;60.44;101067.56;2101683;28;20040;-75
2022/04/16 04:34:35;;;;;;;8.70;4.70;;;;;;;12.47;60.34;101072.97;2102025;28;20040;-75
2022/04/16 04:35:58;;;;;;;9.13;5.40;;;;;;;12.57;60.35;101068.69;2100529;28;20043;-74
2022/04/16 04:37:19;;;;;;;7.70;4.57;;;;;;;12.68;60.35;101073.22;2096469;28;20068;-75
2022/04/16 04:38:41;;;;;;;10.77;5.10;;;;;;;12.82;60.14;101086.63;2083642;28;20270;-75
2022/04/16 04:40:05;;;;;;;8.02;5.15;;;;;;;12.98;60.07;101090.38;2095322;28;20207;-74
2022/04/16 04:41:27;;;;;;;9.18;4.97;;;;;;;13.14;59.94;101090.56;2084544;28;20140;-75
2022/04/16 04:42:51;;;;;;;10.52;5.95;;;;;;;13.34;59.59;101095.19;2082978;28;20060;-75
2022/04/16 04:44:14;;;;;;;10.02;5.55;;;;;;;13.50;59.34;101095.34;2085622;28;20143;-75
2022/04/16 04:45:37;;;;;;;8.35;5.20;;;;;;;13.66;59.07;101099.00;2079738;28;20478;-75
2022/04/16 04:46:58;;;;;;;10.10;5.25;;;;;;;13.78;58.84;101100.91;2083167;28;20052;-76
2022/04/16 04:48:21;;;;;;;9.70;5.32;;;;;;;13.88;58.61;101094.75;2086470;28;20119;-74
2022/04/16 04:49:42;;;;;;;11.50;5.10;;;;;;;13.95;58.39;101099.25;2095298;28;20142;-75
2022/04/16 04:51:05;;;;;;;8.30;4.70;;;;;;;13.97;58.27;101100.16;2093898;28;20103;-75
2022/04/16 04:52:29;;;;;;;6.97;4.32;;;;;;;14.04;58.03;101109.94;2099403;28;20037;-75
2022/04/16 04:53:52;;;;;;;10.98;4.88;;;;;;;14.13;57.80;101109.97;2094008;28;20052;-76
2022/04/16 04:55:15;;;;;;;8.18;4.53;;;;;;;14.23;57.73;101121.56;2097751;28;20085;-75
2022/04/16 04:56:36;;;;;;;10.05;4.93;;;;;;;14.31;57.59;101115.41;2101982;28;20055;-75
2022/04/16 04:58:01;;;;;;;7.97;4.43;;;;;;;14.34;57.38;101120.75;2096852;28;20048;-72
2022/04/16 04:59:22;;;;;;;8.48;4.78;;;;;;;14.36;57.43;101118.09;2087743;28;20072;-72
2022/04/16 05:00:45;;;;;;;11.18;6.03;;;;;;;14.39;57.46;101117.25;2085427;28;20041;-72
2022/04/16 05:02:07;;;;;;;8.60;4.35;;;;;;;14.40;57.46;101108.41;2092463;28;20139;-73
2022/04/16 05:03:30;;;;;;;7.45;4.57;;;;;;;14.46;57.38;101117.28;2093805;28;20097;-72
2022/04/16 05:04:52;;;;;;;7.40;4.45;;;;;;;14.51;57.04;101106.69;2090802;28;20575;-72
2022/04/16 05:06:15;;;;;;;9.45;4.13;;;;;;;14.49;56.95;101100.50;2099731;28;20044;-72
2022/04/16 05:07:38;;;;;;;10.85;5.47;;;;;;;14.47;56.74;101105.78;2103796;28;20131;-72
2022/04/16 05:09:00;;;;;;;9.32;4.20;;;;;;;14.51;56.75;101096.94;2095087;28;20052;-72
2022/04/16 05:10:23;;;;;;;9.40;5.65;;;;;;;14.65;56.70;101089.03;2093898;28;20048;-72
2022/04/16 05:11:44;;;;;;;13.90;4.18;;;;;;;14.84;56.57;101097.97;2093836;28;20041;-73
2022/04/16 05:13:08;;;;;;;8.32;3.85;;;;;;;15.07;56.49;101102.50;2087947;28;20056;-72
2022/04/16 05:14:31;;;;;;;7.20;4.32;;;;;;;15.29;56.37;101099.91;2085768;28;20044;-72
2022/04/16 05:15:54;;;;;;;10.40;4.65;;;;;;;15.49;56.21;101103.47;2085288;28;20083;-72
2022/04/16 05:17:17;;;;;;;8.05;3.90;;;;;;;15.66;56.19;101103.50;2088037;28;20080;-72
2022/04/16 05:18:39;;;;;;;7.55;3.95;;;;;;;15.81;56.14;101101.75;2093898;28;20041;-73
2022/04/16 05:20:04;;;;;;;7.50;5.05;;;;;;;15.95;56.33;101099.94;2093337;28;20047;-73
2022/04/16 05:21:26;;;;;;;7.70;4.32;;;;;;;16.15;56.24;101113.22;2072616;28;20088;-72
2022/04/16 05:22:48;;;;;;;9.75;4.10;;;;;;;16.38;56.13;101113.19;2088946;28;20514;-73
2022/04/16 05:24:11;;;;;;;12.90;5.85;;;;;;;16.66;55.89;101114.03;2098987;28;20090;-73
2022/04/16 05:25:33;;;;;;;7.72;4.85;;;;;;;16.88;55.43;101114.81;2088476;28;20040;-72
2022/04/16 05:26:56;;;;;;;10.00;5.00;;;;;;;17.06;55.19;101109.41;2093563;28;20052;-73
2022/04/16 05:28:21;;;;;;;7.97;4.78;;;;;;;17.23;55.05;101104.84;2094984;28;20099;-73
2022/04/16 05:29:56;;;;;;;9.98;5.38;;;;;;;17.31;55.09;101110.13;2092317;28;20055;-73
2022/04/16 05:31:20;;;;;;;10.00;4.50;;;;;;;17.36;54.98;101111.88;2092663;28;20036;-72
2022/04/16 05:32:42;;;;;;;8.05;4.80;;;;;;;17.28;54.97;101113.69;2091398;28;20055;-73
2022/04/16 05:34:20;;;;;;;8.60;4.45;;;;;;;17.27;55.25;101111.91;2093980;28;20086;-72
2022/04/16 05:35:41;;;;;;;9.25;4.50;;;;;;;17.58;54.54;101109.06;2090909;28;20128;-72
2022/04/16 05:37:04;;;;;;;8.77;5.10;;;;;;;17.81;54.22;101115.13;2088480;28;20059;-72
2022/04/16 05:38:26;;;;;;;8.45;5.05;;;;;;;17.94;53.99;101116.78;2076928;28;20088;-75
2022/04/16 05:39:48;;;;;;;15.18;5.88;;;;;;;18.08;53.74;101109.53;2090706;28;20597;-75
2022/04/16 05:41:11;;;;;;;12.98;7.25;;;;;;;18.31;53.31;101107.50;2092901;28;20139;-76
2022/04/16 05:42:33;;;;;;;13.80;6.13;;;;;;;18.54;52.64;101114.41;2093518;28;20037;-76
2022/04/16 05:43:58;;;;;;;15.80;6.43;;;;;;;18.73;51.96;101115.09;2087840;28;20060;-76
2022/04/16 05:45:20;;;;;;;8.80;5.53;;;;;;;18.86;51.70;101122.06;2094204;28;20045;-73
2022/04/16 05:46:43;;;;;;;13.63;6.57;;;;;;;19.01;51.54;101116.53;2080904;28;20063;-73
2022/04/16 05:48:06;;;;;;;16.08;8.65;;;;;;;19.30;51.06;101113.44;2085136;28;20505;-73
2022/04/16 05:49:30;;;;;;;11.90;6.18;;;;;;;19.52;50.71;101109.56;2087445;28;20056;-73
2022/04/16 05:50:52;;;;;;;11.95;6.85;;;;;;;19.70;50.59;101106.59;2090221;28;20102;-73
2022/04/16 05:52:15;;;;;;;15.02;7.82;;;;;;;19.78;50.52;101102.00;2087940;28;20048;-73
2022/04/16 05:53:37;;;;;;;11.48;6.13;;;;;;;19.92;50.54;101095.53;2085415;28;20395;-75
2022/04/16 05:55:01;;;;;;;11.15;6.40;;;;;;;20.05;50.28;101094.41;2093755;28;20051;-76
2022/04/16 05:56:25;;;;;;;17.20;6.63;;;;;;;20.07;50.27;101093.47;2102106;28;20044;-74
2022/04/16 05:57:47;;;;;;;15.68;6.68;;;;;;;20.15;50.14;101093.34;2102039;28;20052;-73
2022/04/16 05:59:11;;;;;;;10.63;6.20;;;;;;;20.25;49.88;101092.22;2093452;28;20056;-74
2022/04/16 06:00:34;;;;;;;10.63;5.53;;;;;;;20.20;50.29;101081.59;2083527;28;20079;-76
2022/04/16 06:01:57;;;;;;;10.00;4.95;;;;;;;20.31;50.11;101081.38;2096166;28;20589;-74
2022/04/16 06:03:20;;;;;;;10.70;4.90;;;;;;;20.35;50.06;101077.75;2100029;28;20048;-74
2022/04/16 06:04:43;;;;;;;8.63;4.82;;;;;;;20.39;50.20;101078.59;2105917;28;20485;-74
2022/04/16 06:06:05;;;;;;;10.00;5.28;;;;;;;20.36;49.75;101067.91;2103491;28;20386;-73
2022/04/16 06:07:27;;;;;;;8.98;4.60;;;;;;;20.33;50.04;101068.00;2092772;28;20562;-74
2022/04/16 06:08:49;;;;;;;9.27;5.38;;;;;;;20.26;49.88;101065.41;2103347;28;20568;-74
2022/04/16 06:10:11;;;;;;;6.97;4.70;;;;;;;20.20;50.10;101060.16;2092843;28;20040;-74
2022/04/16 06:11:34;;;;;;;12.88;5.30;;;;;;;20.27;49.88;101068.97;2092038;28;20053;-74
2022/04/16 06:12:55;;;;;;;10.07;5.15;;;;;;;20.39;49.90;101065.19;2103613;28;20135;-74
2022/04/16 06:14:20;;;;;;;9.30;4.78;;;;;;;20.66;49.53;101053.91;2106301;28;20048;-74
2022/04/16 06:15:42;;;;;;;12.85;5.30;;;;;;;20.95;48.73;101054.13;2107516;28;20040;-73
2022/04/16 06:17:05;;;;;;;8.38;5.00;;;;;;;21.12;48.38;101045.72;2099499;28;20067;-74
2022/04/16 06:18:28;;;;;;;10.20;4.70;;;;;;;21.07;48.29;101043.09;2100513;28;20053;-73
2022/04/16 06:19:49;;;;;;;14.30;4.72;;;;;;;21.17;48.21;101035.78;2100975;28;20591;-75
2022/04/16 06:21:12;;;;;;;8.73;4.68;;;;;;;21.18;48.27;101034.84;2094988;28;20068;-74
2022/04/16 06:22:35;;;;;;;8.55;4.72;;;;;;;21.04;48.62;101032.47;2086609;28;20049;-74
2022/04/16 06:35:54;;;;;;;12.18;5.78;;;;;;;22.56;45.23;101050.03;2101961;27;20491;-74
2022/04/16 06:37:15;;;;;;;8.05;4.28;;;;;;;22.48;45.93;101045.78;2103546;28;20052;-74
2022/04/16 06:38:37;;;;;;;9.70;5.18;;;;;;;22.38;46.47;101052.38;2100805;28;20083;-74
2022/04/16 06:40:00;;;;;;;7.65;4.07;;;;;;;22.41;46.98;101041.50;2086468;28;20056;-74
2022/04/16 06:41:22;;;;;;;7.03;4.40;;;;;;;22.50;47.35;101044.84;2093850;28;20044;-75
2022/04/16 06:42:45;;;;;;;9.20;4.65;;;;;;;22.62;47.21;101036.41;2107927;28;20270;-75
2022/04/16 06:44:07;;;;;;;8.23;4.43;;;;;;;22.74;47.57;101043.25;2080818;28;20458;-75
2022/04/16 06:45:30;;;;;;;10.48;4.15;;;;;;;22.82;48.05;101043.91;2092005;28;20092;-75
2022/04/16 06:46:54;;;;;;;9.35;4.32;;;;;;;22.85;48.44;101046.50;2095737;28;20052;-74
2022/04/16 06:48:17;;;;;;;17.25;4.88;;;;;;;22.76;48.62;101038.72;2099776;28;20441;-74